Avondale, Alabama
Current Conditions -  °F | °C
As of 1:53 PM on Wednesday 26 Nov 2014 (Local Time) from KBHM Reporting Station
Scattered Clouds Scattered Clouds  
Wind Chill: 57°   Ceiling: Unl
Heat Index: 57°   Visibility: 10mi
Dew Point: 23°   Wind: 8mph
Humidity: 27%   Direction: 230°SW
Pressure: 30.11"   Gusts: NA
Location:  33.5222°N, 86.7699°W
Report Text: KBHM 261953Z 23007KT 10SM SCT180 14/M05 A3011 RMK AO2 SLP194 T01391050
Loading
Personal Weather Stations






























Interactive Weather Map New forecast layout! Learn more

10-Day Weather Forecast

Advertisements
Track Severe Weather on mobile